Time;durP1;ratioP1;P1;durP2;ratioP2;P2;SDS_P1;SDS_P2;PMS_P1;PMS_P2;Temp;Humidity;BMP_temperature;BMP_pressure;BME280_temperature;BME280_humidity;BME280_pressure;Samples;Min_cycle;Max_cycle;Signal;HPM_P1;HPM_P2
2023/09/01 00:01:45;;;;;;;4.35;1.38;;;;;;;14.21;56.17;97669.94;10416224;28;20061;-67
2023/09/01 00:07:16;;;;;;;3.88;1.25;;;;;;;14.23;56.35;97675.66;10415694;28;20041;-66
2023/09/01 00:12:37;;;;;;;3.83;1.40;;;;;;;14.19;56.30;97667.03;10416594;28;20068;-65
2023/09/01 00:17:58;;;;;;;2.70;1.40;;;;;;;14.11;56.58;97663.81;10402526;28;20049;-67
2023/09/01 00:23:18;;;;;;;6.30;1.42;;;;;;;14.07;56.64;97672.00;10417358;28;20468;-67
2023/09/01 00:28:39;;;;;;;3.28;1.38;;;;;;;14.02;57.15;97673.88;10415391;28;20048;-66
2023/09/01 00:34:00;;;;;;;5.53;1.60;;;;;;;13.94;57.15;97679.78;10414806;28;20438;-66
2023/09/01 00:39:21;;;;;;;4.13;1.42;;;;;;;13.90;57.50;97673.97;10415192;28;20072;-66
2023/09/01 00:44:42;;;;;;;4.75;1.50;;;;;;;13.91;57.83;97669.81;10428293;28;20041;-65
2023/09/01 00:50:07;;;;;;;3.95;1.60;;;;;;;13.98;57.88;97680.00;10414300;28;20037;-66
2023/09/01 00:55:29;;;;;;;4.20;1.25;;;;;;;14.09;57.88;97678.47;10414321;28;20077;-66
2023/09/01 01:00:51;;;;;;;4.13;1.50;;;;;;;14.18;57.97;97671.19;10400121;28;20480;-66
2023/09/01 01:06:32;;;;;;;4.35;1.73;;;;;;;14.25;58.03;97670.16;10400410;28;20049;-66
2023/09/01 01:12:16;;;;;;;2.97;1.23;;;;;;;14.31;57.93;97659.97;10415099;28;20053;-66
2023/09/01 01:17:41;;;;;;;9.43;1.58;;;;;;;14.37;57.80;97661.63;10417898;28;20407;-66
2023/09/01 01:23:19;;;;;;;4.75;1.50;;;;;;;14.36;58.10;97665.78;10400388;28;20053;-67
2023/09/01 01:28:40;;;;;;;3.53;1.30;;;;;;;14.36;58.01;97660.91;10413744;28;20056;-66
2023/09/01 01:34:07;;;;;;;4.35;1.50;;;;;;;14.39;58.26;97661.75;10413571;28;20072;-66
2023/09/01 01:39:28;;;;;;;3.47;1.45;;;;;;;14.40;58.06;97661.13;10403582;28;20076;-65
2023/09/01 01:44:50;;;;;;;3.85;1.63;;;;;;;14.43;58.01;97671.09;10421099;28;20069;-66
2023/09/01 01:50:11;;;;;;;5.45;1.27;;;;;;;14.47;58.14;97664.97;10434922;28;20042;-67
2023/09/01 01:55:32;;;;;;;4.30;1.40;;;;;;;14.51;58.00;97665.91;10435353;28;20053;-66
2023/09/01 02:00:54;;;;;;;4.60;1.30;;;;;;;14.56;58.04;97667.56;10406534;28;20041;-66
2023/09/01 02:06:15;;;;;;;3.38;1.45;;;;;;;14.66;57.81;97675.78;10420714;28;20135;-66
2023/09/01 02:11:36;;;;;;;5.85;1.60;;;;;;;14.65;57.92;97670.78;10420176;28;20064;-66
2023/09/01 02:16:59;;;;;;;5.22;1.40;;;;;;;14.65;57.90;97674.31;10406600;28;20472;-66
2023/09/01 02:22:20;;;;;;;6.17;1.20;;;;;;;14.67;57.72;97682.13;10406317;28;20064;-66
2023/09/01 02:27:41;;;;;;;3.83;1.45;;;;;;;14.67;58.43;97670.88;10419875;28;20359;-66
2023/09/01 02:33:03;;;;;;;6.22;1.67;;;;;;;14.67;58.49;97670.88;10433420;28;20069;-66
2023/09/01 02:38:24;;;;;;;5.20;1.70;;;;;;;14.60;59.03;97667.78;10433049;28;20491;-66
2023/09/01 02:43:45;;;;;;;4.88;1.20;;;;;;;14.58;59.31;97658.53;10418953;28;20041;-67
2023/09/01 02:49:06;;;;;;;6.38;1.40;;;;;;;14.61;59.43;97662.91;10417882;28;20125;-66
2023/09/01 02:54:28;;;;;;;6.40;1.50;;;;;;;14.60;59.80;97667.78;10405630;28;20068;-66
2023/09/01 02:59:50;;;;;;;4.30;1.23;;;;;;;14.63;60.02;97660.19;10419187;28;20108;-66
2023/09/01 03:05:11;;;;;;;4.97;1.58;;;;;;;14.63;60.18;97671.41;10417985;28;20054;-66
2023/09/01 03:10:32;;;;;;;5.75;1.52;;;;;;;14.68;60.24;97678.00;10418217;28;20065;-66
2023/09/01 03:15:54;;;;;;;4.82;1.35;;;;;;;14.66;59.94;97683.47;10417700;28;20079;-66
2023/09/01 03:21:15;;;;;;;3.70;1.38;;;;;;;14.66;60.10;97675.78;10417549;28;20092;-66
2023/09/01 03:26:36;;;;;;;4.22;1.40;;;;;;;14.69;60.49;97676.63;10403327;28;20064;-66
2023/09/01 03:31:57;;;;;;;5.32;1.83;;;;;;;14.67;60.49;97676.50;10417325;28;20048;-66
2023/09/01 03:37:18;;;;;;;6.97;1.73;;;;;;;14.65;60.55;97668.72;10403029;28;20096;-66
2023/09/01 03:42:39;;;;;;;5.57;1.50;;;;;;;14.62;60.66;97663.63;10417215;28;20072;-66
2023/09/01 03:48:00;;;;;;;6.30;1.60;;;;;;;14.56;61.18;97667.56;10402841;28;20450;-66
2023/09/01 03:53:22;;;;;;;4.38;1.40;;;;;;;14.52;61.45;97661.75;10402699;28;20072;-66
2023/09/01 03:58:42;;;;;;;4.78;1.67;;;;;;;14.54;61.79;97678.72;10402607;28;20061;-67
2023/09/01 04:04:06;;;;;;;6.00;2.00;;;;;;;14.55;61.82;97691.41;10402340;28;20124;-66
2023/09/01 04:09:27;;;;;;;6.50;1.58;;;;;;;14.50;62.44;97692.56;10416781;28;20042;-66
2023/09/01 04:14:48;;;;;;;4.60;1.52;;;;;;;14.49;62.63;97684.75;10415326;28;20068;-66
2023/09/01 04:20:10;;;;;;;6.35;1.83;;;;;;;14.52;63.01;97678.59;10388114;28;20048;-66
2023/09/01 04:25:33;;;;;;;4.60;1.60;;;;;;;14.52;63.72;97681.41;10417015;28;20511;-69
2023/09/01 04:30:53;;;;;;;5.80;2.05;;;;;;;14.53;63.88;97691.28;10403937;28;20068;-67
2023/09/01 04:36:14;;;;;;;7.35;1.95;;;;;;;14.53;64.37;97696.91;10418198;28;20064;-67
2023/09/01 04:41:35;;;;;;;3.60;1.45;;;;;;;14.56;64.81;97695.66;10418348;28;20049;-67
2023/09/01 04:46:55;;;;;;;6.75;1.50;;;;;;;14.59;65.03;97700.03;10415102;28;20550;-66
2023/09/01 04:52:16;;;;;;;4.80;1.30;;;;;;;14.61;64.79;97691.00;10414329;28;20424;-66
2023/09/01 04:57:46;;;;;;;5.88;1.70;;;;;;;14.69;65.20;97699.09;10414260;28;20103;-66
2023/09/01 05:03:07;;;;;;;5.07;1.10;;;;;;;14.77;64.84;97697.44;10428772;28;20049;-67
2023/09/01 05:08:29;;;;;;;3.78;1.45;;;;;;;14.82;64.96;97701.88;10414415;28;20061;-66
2023/09/01 05:13:50;;;;;;;6.35;2.00;;;;;;;14.88;64.88;97707.09;10416995;28;20376;-66
2023/09/01 05:19:11;;;;;;;6.28;1.45;;;;;;;14.96;64.85;97707.50;10422336;28;20069;-66
2023/09/01 05:24:32;;;;;;;4.15;1.23;;;;;;;15.14;65.03;97711.19;10422424;28;20066;-66
2023/09/01 05:29:52;;;;;;;3.88;1.30;;;;;;;15.34;64.66;97711.44;10435807;28;20481;-66
2023/09/01 05:35:13;;;;;;;5.63;1.40;;;;;;;15.44;64.61;97719.66;10414086;28;20096;-66
2023/09/01 05:40:35;;;;;;;6.35;1.70;;;;;;;15.44;64.53;97716.84;10421535;28;20523;-66
2023/09/01 05:45:56;;;;;;;6.32;1.40;;;;;;;15.95;64.32;97720.00;10423515;28;20064;-67
2023/09/01 05:51:19;;;;;;;7.65;1.83;;;;;;;16.37;63.49;97722.53;10421177;28;20558;-66
2023/09/01 05:56:39;;;;;;;7.28;1.83;;;;;;;16.41;62.85;97719.94;10420708;28;20050;-66
2023/09/01 06:02:00;;;;;;;6.47;1.70;;;;;;;16.61;62.69;97729.25;10420968;28;20136;-67
2023/09/01 06:07:22;;;;;;;6.15;1.77;;;;;;;16.83;62.39;97721.78;10421190;28;20167;-67
2023/09/01 06:12:42;;;;;;;6.53;1.60;;;;;;;17.19;61.25;97733.16;10434017;28;20061;-67
2023/09/01 06:18:03;;;;;;;6.43;1.98;;;;;;;17.36;60.38;97729.63;10420246;28;20053;-67
2023/09/01 06:23:24;;;;;;;7.70;1.35;;;;;;;17.04;59.92;97733.91;10421048;28;20160;-67
2023/09/01 06:28:45;;;;;;;13.18;1.90;;;;;;;16.95;60.19;97732.84;10419586;28;20119;-67
2023/09/01 06:34:06;;;;;;;6.28;2.10;;;;;;;17.06;59.68;97737.53;10419776;28;20041;-67
2023/09/01 06:39:27;;;;;;;6.57;1.85;;;;;;;17.12;59.40;97743.44;10419407;28;20076;-67
2023/09/01 06:44:48;;;;;;;4.97;1.67;;;;;;;17.18;59.24;97757.09;10432622;28;20453;-67
2023/09/01 06:50:08;;;;;;;5.13;1.60;;;;;;;17.30;58.98;97751.94;10418600;28;20121;-67
2023/09/01 06:55:29;;;;;;;6.45;1.33;;;;;;;17.62;58.22;97754.63;10419847;28;20506;-67
2023/09/01 07:00:52;;;;;;;6.72;1.80;;;;;;;17.84;58.18;97758.34;10419518;28;20092;-67
2023/09/01 07:06:16;;;;;;;8.10;1.70;;;;;;;17.77;57.58;97764.44;10418032;28;20098;-68
2023/09/01 07:11:37;;;;;;;5.55;1.85;;;;;;;17.83;57.60;97768.19;10418812;28;20125;-67
2023/09/01 07:16:57;;;;;;;6.38;1.77;;;;;;;17.72;56.67;97760.72;10417929;28;20527;-67
2023/09/01 07:22:18;;;;;;;11.18;2.30;;;;;;;17.52;56.99;97762.69;10418716;28;20445;-67
2023/09/01 07:27:39;;;;;;;5.07;1.40;;;;;;;17.95;57.38;97757.41;10417609;28;20106;-67
2023/09/01 07:33:00;;;;;;;4.78;1.20;;;;;;;18.09;56.64;97762.84;10431105;28;20121;-67
2023/09/01 07:38:20;;;;;;;5.20;0.90;;;;;;;18.85;55.75;97760.72;10417661;28;20065;-67
2023/09/01 07:43:41;;;;;;;3.97;1.15;;;;;;;19.13;54.76;97756.06;10417731;28;20049;-67
2023/09/01 07:49:02;;;;;;;4.57;1.15;;;;;;;19.03;53.61;97758.53;10416443;28;20072;-67
2023/09/01 07:54:23;;;;;;;3.22;1.02;;;;;;;20.23;53.79;97770.91;10430456;28;20188;-66
2023/09/01 07:59:44;;;;;;;5.75;1.83;;;;;;;21.18;50.32;97777.84;10416409;28;20064;-67
2023/09/01 08:05:05;;;;;;;5.20;1.15;;;;;;;19.79;49.47;97767.44;10416884;28;20477;-65
2023/09/01 08:10:26;;;;;;;4.97;1.48;;;;;;;19.49;50.79;97772.78;10416793;28;20123;-65
2023/09/01 08:15:47;;;;;;;5.05;1.83;;;;;;;19.24;50.81;97770.53;10416409;28;20128;-64
2023/09/01 08:21:07;;;;;;;4.93;1.50;;;;;;;18.99;51.42;97775.34;10416105;28;20541;-65
2023/09/01 08:26:28;;;;;;;6.78;1.38;;;;;;;18.92;52.02;97789.97;10415921;28;20072;-64
2023/09/01 08:31:49;;;;;;;8.50;1.63;;;;;;;18.96;52.72;97778.78;10416016;28;20555;-64
2023/09/01 08:37:10;;;;;;;5.45;1.63;;;;;;;18.82;52.57;97785.38;10415803;28;20120;-64
2023/09/01 08:42:31;;;;;;;14.07;2.10;;;;;;;18.80;52.79;97778.91;10415609;28;20076;-67
2023/09/01 08:47:52;;;;;;;5.90;1.70;;;;;;;18.95;53.36;97786.53;10413382;28;20555;-67
2023/09/01 08:53:13;;;;;;;5.13;2.10;;;;;;;18.60;53.73;97776.78;10428241;28;20189;-67
2023/09/01 08:58:33;;;;;;;6.03;1.40;;;;;;;18.15;54.70;97771.56;10400602;28;20049;-67
2023/09/01 09:03:54;;;;;;;3.58;1.55;;;;;;;18.18;55.35;97767.44;10413749;28;20177;-67
2023/09/01 09:09:18;;;;;;;7.30;1.70;;;;;;;18.42;55.30;97769.72;10415248;28;20084;-67
2023/09/01 09:14:45;;;;;;;5.88;1.30;;;;;;;18.96;55.44;97779.50;10414884;28;20136;-67
2023/09/01 09:20:18;;;;;;;5.65;1.40;;;;;;;20.06;54.50;97765.41;10415338;28;20506;-67
2023/09/01 09:25:39;;;;;;;5.78;1.45;;;;;;;21.82;52.72;97775.22;10413719;28;20065;-65
2023/09/01 09:31:00;;;;;;;4.72;1.17;;;;;;;22.73;47.41;97772.97;10414438;28;20057;-65
2023/09/01 09:36:36;;;;;;;3.80;1.40;;;;;;;21.61;46.19;97773.28;10413546;28;20492;-68
2023/09/01 09:41:56;;;;;;;6.50;1.65;;;;;;;21.01;46.99;97778.81;10399787;28;20454;-65
2023/09/01 09:47:18;;;;;;;4.63;1.75;;;;;;;21.10;47.99;97786.16;10426803;28;20045;-66
2023/09/01 09:52:38;;;;;;;4.30;1.35;;;;;;;20.88;47.62;97782.72;10414257;28;20503;-65
2023/09/01 09:58:04;;;;;;;5.05;1.52;;;;;;;21.15;47.51;97770.69;10413525;28;20124;-65
2023/09/01 10:03:29;;;;;;;3.15;1.35;;;;;;;21.29;47.44;97776.03;10420866;28;20058;-66
2023/09/01 10:08:49;;;;;;;4.82;1.38;;;;;;;21.09;47.77;97779.03;10420196;28;20092;-65
2023/09/01 10:14:10;;;;;;;4.78;1.40;;;;;;;20.73;48.32;97778.75;10433962;28;20083;-65
2023/09/01 10:19:31;;;;;;;2.10;0.88;;;;;;;21.05;48.72;97773.97;10419614;28;20076;-65
2023/09/01 10:25:11;;;;;;;4.30;1.80;;;;;;;20.49;48.67;97785.19;10419667;28;20180;-65
2023/09/01 10:30:35;;;;;;;3.03;1.30;;;;;;;20.02;49.95;97780.19;10420106;28;20125;-65
2023/09/01 10:35:57;;;;;;;5.13;1.20;;;;;;;19.38;51.74;97785.16;10420584;28;20073;-65
2023/09/01 10:41:44;;;;;;;5.38;1.02;;;;;;;19.52;52.98;97782.81;10419217;28;20072;-65
2023/09/01 10:47:32;;;;;;;2.33;0.73;;;;;;;19.47;52.78;97772.00;10419648;28;20037;-65
2023/09/01 10:53:30;;;;;;;2.67;0.88;;;;;;;19.32;53.43;97776.47;10419662;28;20463;-65
2023/09/01 10:58:51;;;;;;;3.25;0.75;;;;;;;19.25;53.84;97777.66;10419187;28;20045;-65
2023/09/01 11:04:21;;;;;;;1.42;0.60;;;;;;;19.46;54.63;97768.44;10418594;28;20514;-65
2023/09/01 11:09:45;;;;;;;2.22;0.50;;;;;;;20.48;54.05;97766.00;10417629;28;20457;-65
2023/09/01 11:15:06;;;;;;;1.80;0.57;;;;;;;20.71;53.26;97761.66;10418467;28;20065;-66
2023/09/01 11:20:28;;;;;;;2.30;0.50;;;;;;;21.63;51.74;97759.88;10418748;28;20076;-66
2023/09/01 11:25:56;;;;;;;1.17;0.40;;;;;;;21.73;50.85;97762.22;10417219;28;20121;-65
2023/09/01 11:31:17;;;;;;;0.95;0.40;;;;;;;22.06;50.95;97765.81;10403278;28;20187;-65
2023/09/01 11:36:47;;;;;;;1.75;0.52;;;;;;;22.04;49.34;97760.09;10417078;28;20499;-65
2023/09/01 11:42:10;;;;;;;1.65;0.57;;;;;;;21.78;49.38;97763.03;10430429;28;20124;-65
2023/09/01 11:47:31;;;;;;;1.83;0.60;;;;;;;21.57;49.37;97784.53;10392486;28;20065;-66
2023/09/01 11:52:53;;;;;;;1.55;0.60;;;;;;;21.62;50.41;97764.09;10416196;28;20547;-65
2023/09/01 11:58:15;;;;;;;1.75;0.47;;;;;;;22.15;49.43;97770.31;10417142;28;20133;-65
2023/09/01 12:03:37;;;;;;;3.17;0.40;;;;;;;22.70;48.80;97757.97;10416368;28;20129;-65
2023/09/01 12:09:12;;;;;;;2.85;0.60;;;;;;;22.89;48.02;97759.09;10415591;28;20449;-65
2023/09/01 12:14:32;;;;;;;3.30;0.70;;;;;;;22.35;48.21;97765.06;10416448;28;20091;-66
2023/09/01 12:19:53;;;;;;;1.67;0.63;;;;;;;21.75;49.21;97753.03;10416627;28;20088;-65
2023/09/01 12:25:14;;;;;;;2.78;0.73;;;;;;;21.54;49.49;97763.19;10428965;28;20512;-66
2023/09/01 12:30:35;;;;;;;1.85;0.73;;;;;;;21.37;50.21;97765.59;10415889;28;20112;-66
2023/09/01 12:35:57;;;;;;;2.53;0.70;;;;;;;21.25;50.94;97758.88;10401150;28;20511;-65
2023/09/01 12:41:18;;;;;;;1.58;0.60;;;;;;;21.32;51.35;97752.69;10415800;28;20453;-66
2023/09/01 12:46:39;;;;;;;2.00;0.40;;;;;;;21.55;50.99;97758.94;10415490;28;20041;-67
2023/09/01 12:51:59;;;;;;;1.83;0.80;;;;;;;21.05;51.29;97759.06;10415212;28;20045;-66
2023/09/01 12:57:20;;;;;;;2.25;0.50;;;;;;;20.46;52.54;97751.75;10428045;28;20064;-66
2023/09/01 13:02:41;;;;;;;1.50;0.40;;;;;;;20.42;52.93;97754.44;10415414;28;20081;-65
2023/09/01 13:08:02;;;;;;;1.40;0.70;;;;;;;20.68;53.30;97749.56;10414797;28;20125;-66
2023/09/01 13:13:24;;;;;;;1.90;0.30;;;;;;;21.66;53.29;97749.25;10413904;28;20045;-66
2023/09/01 13:18:45;;;;;;;3.38;0.30;;;;;;;22.53;51.54;97754.06;10415214;28;20103;-66
2023/09/01 13:24:06;;;;;;;2.22;0.80;;;;;;;22.97;50.70;97745.00;10427761;28;20065;-66
2023/09/01 13:29:27;;;;;;;0.77;0.30;;;;;;;23.32;50.17;97752.03;10414487;28;20072;-66
2023/09/01 13:34:48;;;;;;;1.55;0.30;;;;;;;23.51;49.66;97755.19;10416861;28;20407;-66
2023/09/01 13:40:10;;;;;;;1.95;0.40;;;;;;;22.94;49.72;97759.88;10422517;28;20396;-66
2023/09/01 13:45:30;;;;;;;2.45;0.38;;;;;;;22.61;50.09;97767.75;10434772;28;20077;-66
2023/09/01 13:50:51;;;;;;;0.80;0.20;;;;;;;22.57;50.68;97757.00;10422071;28;20100;-66
2023/09/01 13:56:12;;;;;;;1.77;0.20;;;;;;;22.48;50.62;97766.75;10421671;28;20057;-66
2023/09/01 14:01:33;;;;;;;0.75;0.20;;;;;;;22.15;50.99;97761.78;10420568;28;20081;-66
2023/09/01 14:06:54;;;;;;;0.43;0.17;;;;;;;21.66;51.60;97758.50;10421306;28;20116;-66
2023/09/01 14:12:15;;;;;;;0.88;0.20;;;;;;;21.60;52.31;97751.94;10420560;28;20065;-66
2023/09/01 14:17:36;;;;;;;2.15;0.30;;;;;;;21.88;51.81;97751.91;10421646;28;20124;-66
2023/09/01 14:22:57;;;;;;;0.40;0.20;;;;;;;22.33;51.79;97750.81;10420418;28;20499;-66
2023/09/01 14:28:18;;;;;;;0.68;0.17;;;;;;;22.83;51.08;97744.69;10433369;28;20069;-66
2023/09/01 14:33:40;;;;;;;0.70;0.22;;;;;;;23.19;50.91;97735.44;10433263;28;20550;-66
2023/09/01 14:39:08;;;;;;;0.88;0.20;;;;;;;23.26;50.36;97732.00;10432379;28;20072;-66
2023/09/01 14:44:29;;;;;;;0.88;0.20;;;;;;;23.22;49.68;97736.91;10419678;28;20049;-66
2023/09/01 14:49:49;;;;;;;1.15;0.22;;;;;;;22.87;50.09;97733.41;10419304;28;20092;-66
2023/09/01 14:55:10;;;;;;;0.80;0.20;;;;;;;22.77;50.21;97744.56;10404675;28;20123;-66
2023/09/01 15:00:31;;;;;;;1.10;0.28;;;;;;;22.54;50.04;97738.44;10432185;28;20056;-66
2023/09/01 15:05:52;;;;;;;2.75;0.30;;;;;;;22.29;50.45;97745.03;10419109;28;20050;-67
2023/09/01 15:11:13;;;;;;;0.50;0.10;;;;;;;22.22;51.36;97740.63;10418930;28;20056;-65
2023/09/01 15:16:34;;;;;;;2.05;0.20;;;;;;;22.43;51.35;97731.13;10418463;28;20553;-66
2023/09/01 15:21:56;;;;;;;0.47;0.20;;;;;;;22.29;51.67;97733.66;10417583;28;20065;-66
2023/09/01 15:27:17;;;;;;;0.60;0.20;;;;;;;22.03;51.70;97730.22;10418222;28;20037;-66
2023/09/01 15:32:38;;;;;;;2.30;0.20;;;;;;;21.79;52.46;97724.69;10418275;28;20480;-66
2023/09/01 15:38:00;;;;;;;0.88;0.28;;;;;;;21.57;52.86;97733.44;10416702;28;20450;-66
2023/09/01 15:43:21;;;;;;;0.60;0.30;;;;;;;21.36;52.96;97738.59;10416787;28;20072;-66
2023/09/01 15:48:43;;;;;;;1.10;0.30;;;;;;;21.17;53.33;97738.78;10417520;28;20073;-66
2023/09/01 15:54:05;;;;;;;1.03;0.20;;;;;;;20.87;54.69;97739.44;10417291;28;20402;-66
2023/09/01 15:59:26;;;;;;;0.73;0.25;;;;;;;20.61;55.51;97727.34;10416778;28;20060;-66
2023/09/01 16:04:47;;;;;;;0.80;0.30;;;;;;;20.40;56.34;97731.72;10416264;28;20431;-66
2023/09/01 16:10:09;;;;;;;0.68;0.40;;;;;;;20.15;56.62;97731.00;10416345;28;20562;-66
2023/09/01 16:15:30;;;;;;;2.15;0.50;;;;;;;20.12;57.18;97723.81;10416831;28;20055;-66
2023/09/01 16:20:51;;;;;;;1.23;0.30;;;;;;;20.20;57.51;97726.19;10416351;28;20037;-65
2023/09/01 16:26:12;;;;;;;1.15;0.50;;;;;;;20.19;57.90;97716.94;10415256;28;20124;-66
2023/09/01 16:31:37;;;;;;;1.33;0.70;;;;;;;20.00;58.99;97715.69;10415890;28;20060;-66
2023/09/01 16:36:58;;;;;;;1.30;0.40;;;;;;;19.90;59.91;97718.22;10414899;28;20041;-66
2023/09/01 16:42:20;;;;;;;0.82;0.35;;;;;;;19.78;61.03;97725.59;10428842;28;20041;-66
2023/09/01 16:47:41;;;;;;;2.88;0.43;;;;;;;19.83;61.14;97722.25;10415320;28;20041;-66
2023/09/01 16:53:03;;;;;;;1.20;0.32;;;;;;;19.85;61.23;97727.97;10415202;28;20137;-66
2023/09/01 16:58:25;;;;;;;2.65;0.40;;;;;;;19.73;61.48;97731.16;10414258;28;20056;-66
2023/09/01 17:03:46;;;;;;;1.52;0.40;;;;;;;19.64;62.45;97726.59;10414842;28;20081;-65
2023/09/01 17:09:07;;;;;;;1.17;0.52;;;;;;;19.56;62.43;97723.50;10415418;28;20081;-66
2023/09/01 17:14:28;;;;;;;1.10;0.50;;;;;;;19.48;62.52;97731.00;10411353;28;20077;-66
2023/09/01 17:19:49;;;;;;;1.95;0.57;;;;;;;19.39;63.38;97732.84;10423291;28;20392;-65
2023/09/01 17:25:10;;;;;;;2.03;0.50;;;;;;;19.23;63.52;97727.38;10422014;28;20116;-66
2023/09/01 17:30:30;;;;;;;2.65;0.60;;;;;;;19.09;64.06;97738.94;10421860;28;20069;-66
2023/09/01 17:35:51;;;;;;;1.35;0.47;;;;;;;18.99;64.89;97732.94;10422608;28;20124;-66
2023/09/01 17:41:12;;;;;;;2.10;0.73;;;;;;;18.96;66.07;97734.25;10422439;28;20138;-66
2023/09/01 17:46:33;;;;;;;2.15;0.70;;;;;;;18.96;66.85;97748.38;10422232;28;20128;-65
2023/09/01 17:51:55;;;;;;;2.33;0.95;;;;;;;18.94;67.25;97745.50;10422213;28;20511;-66
2023/09/01 17:57:15;;;;;;;2.45;0.70;;;;;;;18.89;67.58;97749.53;10421934;28;20129;-65
2023/09/01 18:02:37;;;;;;;6.13;1.40;;;;;;;18.83;68.13;97755.00;10421732;28;20456;-65
2023/09/01 18:07:57;;;;;;;4.25;1.08;;;;;;;18.74;68.92;97754.00;10434261;28;20099;-66
2023/09/01 18:13:18;;;;;;;1.67;0.77;;;;;;;18.69;69.64;97777.09;10434815;28;20126;-66
2023/09/01 18:18:40;;;;;;;4.95;0.88;;;;;;;18.50;69.40;97762.28;10420976;28;20124;-65
2023/09/01 18:24:05;;;;;;;3.03;0.90;;;;;;;18.29;70.31;97757.97;10420588;28;20064;-66
2023/09/01 18:29:26;;;;;;;2.58;1.02;;;;;;;18.17;72.02;97754.69;10419825;28;20121;-66
2023/09/01 18:34:46;;;;;;;1.23;0.75;;;;;;;18.05;72.29;97747.84;10420318;28;20073;-66
2023/09/01 18:40:25;;;;;;;1.15;0.63;;;;;;;17.96;75.12;97758.84;10420383;28;20212;-66
2023/09/01 18:45:46;;;;;;;1.92;0.80;;;;;;;17.89;75.00;97759.97;10405205;28;20112;-66
2023/09/01 18:51:10;;;;;;;1.48;0.68;;;;;;;17.87;75.75;97767.66;10419086;28;20135;-66
2023/09/01 18:56:31;;;;;;;2.53;0.80;;;;;;;17.85;76.46;97770.38;10405076;28;20069;-66
2023/09/01 19:01:51;;;;;;;2.35;0.82;;;;;;;17.82;76.08;97761.09;10432313;28;20448;-66
2023/09/01 19:07:12;;;;;;;2.03;0.82;;;;;;;17.80;77.28;97763.84;10418153;28;20050;-65
2023/09/01 19:12:33;;;;;;;3.42;0.82;;;;;;;17.83;77.59;97753.34;10418066;28;20069;-65
2023/09/01 19:17:54;;;;;;;1.98;0.98;;;;;;;17.75;77.44;97762.22;10418365;28;20466;-65
2023/09/01 19:23:41;;;;;;;1.67;0.82;;;;;;;17.69;78.06;97761.97;10417538;28;20069;-65
2023/09/01 19:29:12;;;;;;;1.90;1.05;;;;;;;17.51;79.78;97767.59;10418203;28;20057;-67
2023/09/01 19:34:32;;;;;;;2.28;0.80;;;;;;;17.35;80.98;97778.22;10418014;28;20115;-67
2023/09/01 19:39:53;;;;;;;2.47;0.88;;;;;;;17.25;82.50;97780.63;10417246;28;20069;-68
2023/09/01 19:45:22;;;;;;;1.70;0.70;;;;;;;17.19;83.52;97783.94;10416831;28;20069;-68
2023/09/01 19:50:42;;;;;;;1.38;0.77;;;;;;;17.15;83.24;97778.09;10430462;28;20104;-68
2023/09/01 19:56:03;;;;;;;1.48;0.70;;;;;;;17.09;84.18;97781.41;10416202;28;20049;-68
2023/09/01 20:01:25;;;;;;;1.55;0.68;;;;;;;17.10;85.08;97782.84;10417141;28;20194;-68
2023/09/01 20:06:45;;;;;;;3.20;0.90;;;;;;;17.14;85.21;97791.47;10416696;28;20122;-67
2023/09/01 20:12:06;;;;;;;2.75;0.88;;;;;;;17.10;86.15;97784.94;10429712;28;20049;-68
2023/09/01 20:17:27;;;;;;;1.85;0.85;;;;;;;17.02;85.97;97776.13;10416443;28;20073;-68
2023/09/01 20:22:48;;;;;;;2.03;0.98;;;;;;;17.04;86.96;97781.84;10418140;28;20053;-67
2023/09/01 20:28:10;;;;;;;5.20;1.10;;;;;;;17.13;86.50;97787.22;10415255;28;20041;-68
2023/09/01 20:33:31;;;;;;;2.95;0.85;;;;;;;17.18;87.04;97771.19;10416431;28;20069;-67
2023/09/01 20:38:51;;;;;;;1.95;0.93;;;;;;;17.22;87.35;97782.63;10429382;28;20456;-67
2023/09/01 20:44:12;;;;;;;1.70;1.20;;;;;;;17.23;86.63;97778.44;10415656;28;20168;-67
2023/09/01 20:49:33;;;;;;;2.38;1.00;;;;;;;17.22;86.97;97776.28;10428467;28;20069;-67
2023/09/01 20:54:53;;;;;;;2.80;0.95;;;;;;;17.17;87.51;97770.44;10428498;28;20061;-67
2023/09/01 21:00:16;;;;;;;4.35;1.15;;;;;;;17.15;88.03;97770.38;10415309;28;20169;-68
2023/09/01 21:05:37;;;;;;;2.13;0.80;;;;;;;17.22;88.34;97777.00;10428043;28;20073;-67
2023/09/01 21:10:58;;;;;;;2.80;0.82;;;;;;;17.27;88.29;97780.69;10414103;28;20045;-68
2023/09/01 21:16:20;;;;;;;3.80;1.00;;;;;;;17.28;88.37;97782.91;10428441;28;20403;-68
2023/09/01 21:21:41;;;;;;;1.95;1.10;;;;;;;17.21;88.25;97772.72;10413970;28;20454;-68
2023/09/01 21:27:02;;;;;;;2.55;1.20;;;;;;;17.12;89.00;97780.13;10414205;28;20460;-68
2023/09/01 21:32:22;;;;;;;2.53;0.98;;;;;;;17.15;89.40;97775.28;10427566;28;20065;-67
2023/09/01 21:37:43;;;;;;;1.45;0.70;;;;;;;17.18;89.23;97782.47;10413680;28;20452;-68
2023/09/01 21:43:04;;;;;;;6.32;1.00;;;;;;;17.17;89.84;97781.00;10413745;28;20046;-67
2023/09/01 21:48:24;;;;;;;3.83;1.17;;;;;;;17.16;89.14;97782.38;10414273;28;20069;-68
2023/09/01 21:53:45;;;;;;;1.60;0.57;;;;;;;17.13;89.15;97786.47;10427263;28;20077;-68
2023/09/01 21:59:06;;;;;;;1.02;0.77;;;;;;;17.10;89.36;97794.13;10422258;28;20069;-67
2023/09/01 22:04:26;;;;;;;1.75;0.80;;;;;;;17.11;89.36;97789.94;10420480;28;20085;-68
2023/09/01 22:09:48;;;;;;;2.03;0.90;;;;;;;17.10;89.59;97799.78;10420385;28;20042;-68
2023/09/01 22:15:10;;;;;;;1.77;0.77;;;;;;;17.08;89.18;97805.34;10422105;28;20117;-67
2023/09/01 22:20:30;;;;;;;1.27;0.70;;;;;;;17.01;89.47;97809.25;10421126;28;20147;-67
2023/09/01 22:25:51;;;;;;;1.23;0.60;;;;;;;16.99;89.68;97805.63;10420292;28;20065;-66
2023/09/01 22:31:12;;;;;;;2.70;1.00;;;;;;;16.96;89.84;97806.88;10420970;28;20046;-66
2023/09/01 22:36:33;;;;;;;2.05;0.82;;;;;;;16.88;89.79;97819.25;10419760;28;20175;-66
2023/09/01 22:41:53;;;;;;;1.98;0.63;;;;;;;16.82;89.90;97812.63;10433344;28;20041;-66
2023/09/01 22:47:14;;;;;;;2.30;0.90;;;;;;;16.77;89.92;97817.34;10419967;28;20164;-67
2023/09/01 22:52:35;;;;;;;1.38;0.80;;;;;;;16.72;90.14;97827.00;10419986;28;20164;-67
2023/09/01 22:57:55;;;;;;;1.42;0.80;;;;;;;16.75;90.11;97827.81;10419661;28;20049;-67
2023/09/01 23:03:16;;;;;;;2.22;0.70;;;;;;;16.75;90.41;97834.19;10404604;28;20499;-67
2023/09/01 23:08:38;;;;;;;2.15;0.77;;;;;;;16.72;90.28;97843.91;10418074;28;20061;-67
2023/09/01 23:13:58;;;;;;;3.80;0.70;;;;;;;16.70;90.36;97852.28;10419527;28;20119;-67
2023/09/01 23:19:19;;;;;;;1.95;0.70;;;;;;;16.70;90.54;97849.47;10418944;28;20129;-67
2023/09/01 23:24:40;;;;;;;2.08;0.80;;;;;;;16.75;90.37;97862.38;10418694;28;20444;-67
2023/09/01 23:30:01;;;;;;;1.00;0.45;;;;;;;16.75;90.43;97848.28;10431527;28;20068;-67
2023/09/01 23:35:22;;;;;;;2.35;0.50;;;;;;;16.73;90.33;97862.28;10417378;28;20064;-67
2023/09/01 23:40:43;;;;;;;2.45;0.60;;;;;;;16.69;90.24;97862.09;10417973;28;20069;-67
2023/09/01 23:46:05;;;;;;;1.73;0.50;;;;;;;16.65;90.53;97863.97;10416822;28;20050;-67
2023/09/01 23:51:26;;;;;;;1.98;0.70;;;;;;;16.64;90.91;97879.44;10416506;28;20116;-67
2023/09/01 23:56:47;;;;;;;3.42;0.77;;;;;;;16.71;91.07;97881.94;10416549;28;20073;-66
